createdAt,value
2018-05-07T00:00:58.880Z,16.34
2018-05-07T00:01:59.383Z,16.38
2018-05-07T00:02:58.769Z,16.39
2018-05-07T00:03:58.649Z,16.24
2018-05-07T00:05:19.566Z,16.30
2018-05-07T00:05:58.614Z,16.28
2018-05-07T00:06:58.467Z,16.25
2018-05-07T00:07:58.364Z,16.27
2018-05-07T00:08:58.369Z,16.23
2018-05-07T00:09:58.251Z,16.20
2018-05-07T00:11:19.136Z,16.21
2018-05-07T00:11:58.086Z,16.17
2018-05-07T00:12:58.012Z,16.05
2018-05-07T00:13:57.946Z,16.11
2018-05-07T00:14:57.875Z,16.09
2018-05-07T00:15:57.798Z,16.09
2018-05-07T00:17:18.712Z,16.05
2018-05-07T00:17:57.658Z,15.94
2018-05-07T00:18:57.588Z,16.05
2018-05-07T00:19:57.520Z,16.05
2018-05-07T00:20:57.473Z,15.92
2018-05-07T00:21:57.372Z,16.00
2018-05-07T00:23:18.287Z,15.93
2018-05-07T00:23:57.229Z,15.93
2018-05-07T00:24:57.158Z,15.93
2018-05-07T00:25:57.089Z,15.94
2018-05-07T00:26:57.022Z,15.83
2018-05-07T00:27:56.947Z,15.82
2018-05-07T00:29:17.864Z,15.80
2018-05-07T00:29:56.828Z,15.82
2018-05-07T00:30:56.775Z,15.93
2018-05-07T00:31:56.666Z,16.00
2018-05-07T00:32:56.590Z,15.92
2018-05-07T00:33:56.520Z,16.04
2018-05-07T00:35:17.437Z,15.96
2018-05-07T00:35:56.380Z,15.96
2018-05-07T00:36:56.307Z,15.94
2018-05-07T00:37:56.238Z,15.90
2018-05-07T00:38:56.163Z,15.94
2018-05-07T00:39:56.094Z,15.90
2018-05-07T00:41:17.005Z,15.86
2018-05-07T00:41:55.953Z,15.71
2018-05-07T00:42:55.882Z,15.71
2018-05-07T00:43:55.812Z,15.69
2018-05-07T00:44:55.754Z,15.62
2018-05-07T00:45:55.679Z,15.60
2018-05-07T00:47:16.578Z,15.59
2018-05-07T00:47:55.531Z,15.47
2018-05-07T00:48:55.470Z,15.36
2018-05-07T00:49:55.388Z,15.27
2018-05-07T00:50:55.318Z,15.19
2018-05-07T00:51:55.247Z,15.06
2018-05-07T00:53:16.159Z,14.95
2018-05-07T00:53:55.127Z,14.99
2018-05-07T00:54:55.029Z,14.99
2018-05-07T00:55:54.958Z,14.83
2018-05-07T00:56:54.885Z,14.83
2018-05-07T00:57:54.830Z,14.75
2018-05-07T00:59:15.732Z,14.78
2018-05-07T00:59:54.664Z,14.69
2018-05-07T01:00:54.623Z,14.61
2018-05-07T01:01:54.538Z,14.54
2018-05-07T01:02:54.459Z,14.43
2018-05-07T01:03:54.384Z,14.46
2018-05-07T01:05:15.298Z,14.29
2018-05-07T01:05:54.249Z,14.28
2018-05-07T01:06:54.171Z,14.36
2018-05-07T01:07:54.100Z,14.40
2018-05-07T01:08:54.024Z,14.46
2018-05-07T01:09:53.965Z,14.43
2018-05-07T01:11:14.875Z,14.46
2018-05-07T01:11:53.828Z,14.50
2018-05-07T01:12:53.836Z,14.54
2018-05-07T01:13:53.668Z,14.55
2018-05-07T01:14:53.616Z,14.70
2018-05-07T01:15:53.545Z,14.72
2018-05-07T01:17:14.436Z,14.77
2018-05-07T01:17:53.379Z,14.83
2018-05-07T01:18:53.320Z,14.78
2018-05-07T01:19:53.251Z,14.83
2018-05-07T01:20:53.171Z,14.91
2018-05-07T01:21:53.091Z,14.88
2018-05-07T01:23:14.005Z,14.81
2018-05-07T01:23:52.976Z,14.83
2018-05-07T01:24:52.885Z,14.84
2018-05-07T01:25:52.811Z,14.77
2018-05-07T01:26:52.739Z,14.77
2018-05-07T01:27:52.670Z,14.73
2018-05-07T01:29:13.583Z,14.73
2018-05-07T01:29:52.526Z,14.78
2018-05-07T01:30:52.446Z,14.73
2018-05-07T01:31:52.400Z,14.84
2018-05-07T01:32:52.307Z,14.88
2018-05-07T01:33:52.238Z,15.02
2018-05-07T01:35:13.143Z,15.01
2018-05-07T01:35:52.098Z,14.99
2018-05-07T01:36:52.020Z,14.99
2018-05-07T01:37:51.947Z,14.96
2018-05-07T01:38:51.870Z,14.88
2018-05-07T01:39:51.800Z,14.98
2018-05-07T01:41:12.716Z,14.88
2018-05-07T01:41:51.659Z,14.91
2018-05-07T01:42:51.614Z,14.91
2018-05-07T01:43:51.512Z,14.86
2018-05-07T01:44:51.442Z,14.75
2018-05-07T01:45:51.370Z,14.68
2018-05-07T01:47:12.283Z,14.75
2018-05-07T01:47:51.252Z,14.72
2018-05-07T01:48:51.170Z,14.69
2018-05-07T01:49:51.092Z,14.65
2018-05-07T01:50:51.009Z,14.81
2018-05-07T01:51:50.943Z,14.86
2018-05-07T01:53:11.855Z,14.84
2018-05-07T01:53:50.802Z,14.72
2018-05-07T01:54:50.728Z,14.62
2018-05-07T01:55:50.652Z,14.55
2018-05-07T01:56:50.580Z,14.52
2018-05-07T01:57:50.512Z,14.54
2018-05-07T01:59:11.425Z,14.50
2018-05-07T01:59:50.372Z,14.50
2018-05-07T02:00:50.295Z,14.32
2018-05-07T02:01:50.223Z,14.20
2018-05-07T02:02:50.154Z,14.18
2018-05-07T02:03:50.077Z,14.15
2018-05-07T02:05:10.992Z,14.14
2018-05-07T02:05:49.933Z,14.12
2018-05-07T02:06:49.862Z,14.06
2018-05-07T02:07:49.800Z,14.06
2018-05-07T02:08:49.728Z,14.02
2018-05-07T02:09:49.643Z,13.95
2018-05-07T02:11:10.564Z,13.95
2018-05-07T02:11:49.503Z,13.92
2018-05-07T02:12:49.430Z,13.92
2018-05-07T02:13:49.355Z,13.91
2018-05-07T02:14:49.284Z,13.85
2018-05-07T02:15:49.216Z,13.84
2018-05-07T02:17:10.134Z,13.91
2018-05-07T02:17:49.072Z,13.88
2018-05-07T02:18:48.998Z,13.88
2018-05-07T02:19:48.934Z,13.88
2018-05-07T02:20:48.854Z,13.85
2018-05-07T02:21:48.789Z,13.79
2018-05-07T02:23:09.696Z,13.82
2018-05-07T02:23:48.641Z,13.77
2018-05-07T02:24:48.574Z,13.78
2018-05-07T02:25:48.492Z,13.70
2018-05-07T02:26:48.419Z,13.71
2018-05-07T02:27:48.346Z,13.71
2018-05-07T02:29:09.261Z,13.73
2018-05-07T02:29:48.206Z,13.82
2018-05-07T02:30:48.137Z,13.87
2018-05-07T02:31:48.058Z,13.85
2018-05-07T02:32:47.995Z,13.92
2018-05-07T02:33:47.922Z,13.87
2018-05-07T02:35:08.829Z,13.88
2018-05-07T02:35:47.779Z,13.87
2018-05-07T02:36:47.701Z,13.70
2018-05-07T02:37:47.635Z,13.79
2018-05-07T02:38:47.557Z,13.78
2018-05-07T02:39:47.501Z,13.82
2018-05-07T02:41:08.394Z,13.75
2018-05-07T02:41:47.363Z,13.85
2018-05-07T02:42:47.311Z,13.71
2018-05-07T02:43:47.194Z,13.70
2018-05-07T02:44:47.124Z,13.57
2018-05-07T02:45:47.053Z,13.59
2018-05-07T02:47:07.973Z,13.55
2018-05-07T02:47:46.907Z,13.57
2018-05-07T02:48:46.833Z,13.70
2018-05-07T02:49:46.763Z,13.69
2018-05-07T02:50:46.694Z,13.57
2018-05-07T02:51:46.617Z,13.62
2018-05-07T02:53:07.528Z,13.60
2018-05-07T02:53:46.468Z,13.55
2018-05-07T02:54:46.407Z,13.57
2018-05-07T02:55:46.331Z,13.46
2018-05-07T02:56:46.256Z,13.52
2018-05-07T02:57:46.183Z,13.39
2018-05-07T02:59:07.092Z,13.45
2018-05-07T02:59:46.034Z,13.38
2018-05-07T03:00:45.974Z,13.41
2018-05-07T03:01:45.907Z,13.33
2018-05-07T03:02:45.871Z,13.22
2018-05-07T03:03:45.755Z,13.28
2018-05-07T03:05:06.662Z,13.33
2018-05-07T03:05:45.613Z,13.30
2018-05-07T03:06:45.546Z,13.26
2018-05-07T03:07:45.467Z,13.26
2018-05-07T03:08:45.389Z,13.22
2018-05-07T03:09:45.316Z,13.22
2018-05-07T03:11:06.224Z,13.25
2018-05-07T03:11:45.189Z,13.28
2018-05-07T03:12:45.097Z,13.22
2018-05-07T03:13:45.024Z,13.23
2018-05-07T03:14:44.957Z,13.12
2018-05-07T03:15:44.883Z,13.05
2018-05-07T03:17:05.792Z,13.07
2018-05-07T03:17:44.753Z,13.15
2018-05-07T03:18:44.657Z,13.11
2018-05-07T03:19:44.591Z,13.17
2018-05-07T03:20:44.520Z,13.20
2018-05-07T03:21:44.451Z,13.28
2018-05-07T03:23:05.356Z,13.30
2018-05-07T03:23:44.308Z,13.29
2018-05-07T03:24:44.241Z,13.29
2018-05-07T03:25:44.152Z,13.29
2018-05-07T03:26:44.079Z,13.17
2018-05-07T03:27:44.013Z,13.15
2018-05-07T03:29:04.919Z,13.17
2018-05-07T03:29:43.909Z,13.20
2018-05-07T03:30:43.791Z,13.19
2018-05-07T03:31:43.727Z,12.93
2018-05-07T03:32:43.642Z,12.97
2018-05-07T03:33:43.569Z,12.83
2018-05-07T03:35:04.498Z,12.85
2018-05-07T03:35:43.436Z,12.85
2018-05-07T03:36:43.356Z,12.85
2018-05-07T03:37:43.285Z,12.79
2018-05-07T03:38:43.275Z,12.70
2018-05-07T03:39:43.211Z,12.93
2018-05-07T03:41:04.050Z,12.74
2018-05-07T03:41:42.987Z,12.78
2018-05-07T03:42:42.917Z,12.85
2018-05-07T03:43:42.868Z,12.79
2018-05-07T03:44:42.783Z,12.71
2018-05-07T03:45:42.706Z,12.74
2018-05-07T03:47:03.612Z,12.87
2018-05-07T03:47:42.567Z,12.85
2018-05-07T03:48:42.518Z,12.93
2018-05-07T03:49:42.421Z,12.86
2018-05-07T03:50:42.343Z,12.93
2018-05-07T03:51:42.300Z,12.97
2018-05-07T03:53:03.197Z,12.85
2018-05-07T03:53:42.141Z,12.86
2018-05-07T03:54:42.074Z,12.92
2018-05-07T03:55:41.999Z,12.78
2018-05-07T03:56:41.930Z,12.82
2018-05-07T03:57:41.850Z,12.85
2018-05-07T03:59:02.738Z,12.86
2018-05-07T03:59:41.693Z,12.86
2018-05-07T04:00:41.624Z,12.83
2018-05-07T04:01:41.550Z,12.87
2018-05-07T04:02:41.489Z,12.83
2018-05-07T04:03:41.415Z,12.89
2018-05-07T04:05:02.350Z,12.83
2018-05-07T04:05:41.293Z,12.79
2018-05-07T04:06:41.194Z,12.89
2018-05-07T04:07:41.106Z,12.82
2018-05-07T04:08:41.071Z,12.83
2018-05-07T04:09:40.979Z,12.75
2018-05-07T04:11:01.881Z,12.74
2018-05-07T04:11:40.864Z,12.72
2018-05-07T04:12:40.790Z,12.70
2018-05-07T04:13:40.659Z,12.68
2018-05-07T04:14:40.591Z,12.64
2018-05-07T04:15:40.518Z,12.57
2018-05-07T04:17:01.427Z,12.67
2018-05-07T04:17:40.370Z,12.70
2018-05-07T04:18:40.303Z,12.67
2018-05-07T04:19:40.232Z,12.60
2018-05-07T04:20:40.153Z,12.71
2018-05-07T04:21:40.080Z,12.71
2018-05-07T04:23:01.001Z,12.77
2018-05-07T04:23:39.930Z,12.77
2018-05-07T04:24:39.859Z,12.77
2018-05-07T04:25:39.780Z,12.62
2018-05-07T04:26:39.714Z,12.59
2018-05-07T04:27:39.646Z,12.53
2018-05-07T04:29:00.556Z,12.49
2018-05-07T04:29:39.497Z,12.49
2018-05-07T04:30:39.422Z,12.38
2018-05-07T04:31:39.350Z,12.46
2018-05-07T04:32:39.277Z,12.42
2018-05-07T04:33:39.261Z,12.50
2018-05-07T04:35:00.113Z,12.50
2018-05-07T04:35:39.064Z,12.62
2018-05-07T04:36:38.989Z,12.59
2018-05-07T04:37:38.914Z,12.60
2018-05-07T04:38:38.838Z,12.68
2018-05-07T04:39:38.762Z,12.68
2018-05-07T04:40:59.695Z,12.67
2018-05-07T04:41:38.620Z,12.82
2018-05-07T04:42:38.546Z,12.68
2018-05-07T04:43:38.470Z,12.70
2018-05-07T04:44:38.413Z,12.77
2018-05-07T04:45:38.326Z,12.77
2018-05-07T04:46:59.260Z,12.82
2018-05-07T04:47:38.180Z,12.74
2018-05-07T04:48:38.106Z,12.74
2018-05-07T04:49:38.042Z,12.74
2018-05-07T04:50:37.972Z,12.87
2018-05-07T04:51:37.888Z,12.74
2018-05-07T04:52:58.796Z,12.74
2018-05-07T04:53:37.761Z,12.75
2018-05-07T04:54:37.679Z,12.75
2018-05-07T04:55:37.598Z,12.79
2018-05-07T04:56:37.524Z,12.83
2018-05-07T04:57:37.449Z,12.86
2018-05-07T04:58:58.376Z,12.97
2018-05-07T04:59:37.310Z,12.96
2018-05-07T05:00:37.242Z,13.05
2018-05-07T05:01:37.157Z,13.00
2018-05-07T05:02:37.093Z,12.97
2018-05-07T05:03:37.032Z,12.96
2018-05-07T05:04:57.923Z,13.04
2018-05-07T05:05:36.872Z,13.01
2018-05-07T05:06:36.797Z,13.07
2018-05-07T05:07:36.723Z,13.19
2018-05-07T05:08:36.651Z,13.20
2018-05-07T05:09:36.588Z,13.25
2018-05-07T05:10:57.484Z,13.15
2018-05-07T05:11:36.431Z,13.17
2018-05-07T05:12:36.360Z,13.19
2018-05-07T05:13:36.290Z,13.19
2018-05-07T05:14:36.220Z,13.30
2018-05-07T05:15:36.172Z,13.25
2018-05-07T05:16:57.062Z,13.22
2018-05-07T05:17:35.997Z,13.29
2018-05-07T05:18:35.960Z,13.29
2018-05-07T05:19:35.845Z,13.29
2018-05-07T05:20:35.780Z,13.29
2018-05-07T05:21:35.722Z,13.41
2018-05-07T05:22:56.617Z,13.48
2018-05-07T05:23:35.557Z,13.52
2018-05-07T05:24:35.500Z,13.52
2018-05-07T05:25:35.417Z,13.63
2018-05-07T05:26:35.344Z,13.85
2018-05-07T05:27:35.270Z,14.02
2018-05-07T05:28:56.180Z,14.07
2018-05-07T05:29:35.131Z,13.89
2018-05-07T05:30:35.049Z,13.95
2018-05-07T05:31:34.984Z,14.06
2018-05-07T05:32:34.906Z,13.99
2018-05-07T05:33:34.837Z,14.00
2018-05-07T05:34:55.754Z,13.97
2018-05-07T05:35:34.688Z,14.07
2018-05-07T05:36:34.616Z,14.03
2018-05-07T05:37:34.551Z,13.95
2018-05-07T05:38:34.478Z,14.00
2018-05-07T05:39:34.405Z,13.95
2018-05-07T05:40:55.318Z,13.99
2018-05-07T05:41:34.256Z,14.03
2018-05-07T05:42:34.199Z,14.15
2018-05-07T05:43:34.181Z,14.20
2018-05-07T05:44:34.049Z,14.18
2018-05-07T05:45:33.965Z,14.17
2018-05-07T05:46:54.878Z,14.24
2018-05-07T05:47:33.828Z,14.43
2018-05-07T05:48:33.765Z,14.50
2018-05-07T05:49:33.683Z,14.46
2018-05-07T05:50:33.619Z,14.51
2018-05-07T05:51:33.544Z,14.72
2018-05-07T05:52:54.451Z,14.83
2018-05-07T05:53:33.391Z,14.88
2018-05-07T05:54:33.326Z,15.03
2018-05-07T05:55:33.265Z,15.13
2018-05-07T05:56:33.182Z,15.23
2018-05-07T05:57:33.110Z,15.41
2018-05-07T05:58:54.020Z,15.51
2018-05-07T05:59:32.976Z,15.62
2018-05-07T06:00:32.895Z,15.62
2018-05-07T06:01:32.826Z,15.68
2018-05-07T06:02:32.743Z,15.71
2018-05-07T06:03:32.685Z,15.69
2018-05-07T06:04:53.584Z,15.75
2018-05-07T06:05:32.545Z,15.82
2018-05-07T06:06:32.459Z,15.82
2018-05-07T06:07:32.414Z,15.92
2018-05-07T06:08:32.319Z,15.80
2018-05-07T06:09:32.249Z,15.92
2018-05-07T06:10:53.156Z,15.90
2018-05-07T06:11:32.106Z,15.90
2018-05-07T06:12:32.031Z,15.97
2018-05-07T06:13:31.968Z,15.96
2018-05-07T06:14:31.945Z,16.07
2018-05-07T06:15:31.815Z,16.08
2018-05-07T06:16:52.750Z,16.23
2018-05-07T06:17:31.673Z,16.25
2018-05-07T06:18:31.601Z,16.28
2018-05-07T06:19:31.535Z,16.39
2018-05-07T06:20:31.461Z,16.38
2018-05-07T06:21:31.388Z,16.39
2018-05-07T06:22:52.317Z,16.43
2018-05-07T06:23:31.272Z,16.45
2018-05-07T06:24:31.174Z,16.56
2018-05-07T06:25:31.101Z,16.60
2018-05-07T06:26:31.033Z,16.56
2018-05-07T06:27:30.963Z,16.67
2018-05-07T06:28:51.876Z,16.67
2018-05-07T06:29:30.819Z,16.68
2018-05-07T06:30:30.744Z,16.71
2018-05-07T06:31:30.680Z,16.71
2018-05-07T06:32:30.661Z,16.76
2018-05-07T06:33:30.624Z,16.78
2018-05-07T06:34:51.450Z,16.94
2018-05-07T06:35:30.389Z,16.94
2018-05-07T06:36:30.329Z,16.94
2018-05-07T06:37:30.262Z,17.04
2018-05-07T06:38:30.178Z,17.12
2018-05-07T06:39:30.117Z,17.14
2018-05-07T06:40:51.036Z,17.25
2018-05-07T06:41:30.000Z,17.18
2018-05-07T06:42:29.899Z,17.26
2018-05-07T06:43:29.824Z,17.28
2018-05-07T06:44:29.753Z,17.34
2018-05-07T06:45:29.683Z,17.38
2018-05-07T06:46:50.597Z,17.43
2018-05-07T06:47:29.540Z,17.49
2018-05-07T06:48:29.544Z,17.55
2018-05-07T06:49:29.415Z,17.59
2018-05-07T06:50:29.330Z,17.62
2018-05-07T06:51:29.258Z,17.64
2018-05-07T06:52:50.173Z,17.64
2018-05-07T06:53:29.116Z,17.63
2018-05-07T06:54:29.050Z,17.74
2018-05-07T06:55:28.973Z,17.74
2018-05-07T06:56:28.908Z,17.78
2018-05-07T06:57:28.836Z,17.84
2018-05-07T06:58:49.754Z,17.81
2018-05-07T06:59:28.696Z,17.84
2018-05-07T07:00:28.624Z,17.96
2018-05-07T07:01:28.559Z,17.95
2018-05-07T07:02:28.508Z,18.03
2018-05-07T07:03:28.413Z,18.12
2018-05-07T07:04:49.380Z,18.15
2018-05-07T07:05:28.283Z,18.11
2018-05-07T07:06:28.206Z,18.02
2018-05-07T07:07:28.145Z,17.97
2018-05-07T07:08:28.325Z,18.08
2018-05-07T07:09:27.995Z,18.20
2018-05-07T07:10:48.911Z,18.14
2018-05-07T07:11:27.852Z,18.23
2018-05-07T07:12:27.787Z,18.23
2018-05-07T07:13:27.710Z,18.27
2018-05-07T07:14:27.649Z,18.32
2018-05-07T07:15:27.575Z,18.21
2018-05-07T07:16:48.483Z,18.32
2018-05-07T07:17:27.441Z,18.29
2018-05-07T07:18:27.364Z,18.39
2018-05-07T07:19:27.288Z,18.37
2018-05-07T07:20:27.221Z,18.37
2018-05-07T07:21:27.157Z,18.47
2018-05-07T07:22:48.066Z,18.55
2018-05-07T07:23:27.012Z,18.63
2018-05-07T07:24:26.939Z,18.76
2018-05-07T07:25:26.887Z,18.78
2018-05-07T07:26:26.807Z,18.82
2018-05-07T07:27:26.728Z,18.92
2018-05-07T07:28:47.641Z,18.91
2018-05-07T07:29:26.596Z,18.87
2018-05-07T07:30:26.519Z,18.88
2018-05-07T07:31:26.452Z,19.06
2018-05-07T07:32:26.377Z,18.92
2018-05-07T07:33:26.310Z,18.98
2018-05-07T07:34:47.226Z,18.95
2018-05-07T07:35:26.167Z,18.92
2018-05-07T07:36:26.107Z,19.00
2018-05-07T07:37:26.050Z,18.92
2018-05-07T07:38:25.962Z,18.90
2018-05-07T07:39:25.981Z,18.95
2018-05-07T07:40:46.805Z,19.02
2018-05-07T07:41:25.756Z,19.04
2018-05-07T07:42:25.688Z,19.06
2018-05-07T07:43:25.611Z,19.11
2018-05-07T07:44:25.544Z,19.18
2018-05-07T07:45:25.481Z,19.18
2018-05-07T07:46:46.391Z,19.29
2018-05-07T07:47:25.332Z,19.36
2018-05-07T07:48:25.267Z,19.37
2018-05-07T07:49:25.209Z,19.44
2018-05-07T07:50:25.127Z,19.44
2018-05-07T07:51:25.055Z,19.58
2018-05-07T07:52:45.975Z,19.63
2018-05-07T07:53:24.955Z,19.68
2018-05-07T07:54:24.853Z,19.58
2018-05-07T07:55:24.779Z,19.56
2018-05-07T07:56:24.711Z,19.66
2018-05-07T07:57:24.646Z,19.66
2018-05-07T07:58:45.555Z,19.74
2018-05-07T07:59:24.552Z,19.83
2018-05-07T08:00:24.432Z,19.87
2018-05-07T08:01:24.358Z,20.01
2018-05-07T08:02:24.293Z,20.03
2018-05-07T08:03:24.228Z,20.05
2018-05-07T08:04:45.139Z,20.01
2018-05-07T08:05:24.084Z,20.05
2018-05-07T08:06:24.021Z,20.17
2018-05-07T08:07:23.949Z,20.14
2018-05-07T08:08:23.894Z,20.20
2018-05-07T08:09:23.810Z,20.28
2018-05-07T08:10:44.724Z,20.20
2018-05-07T08:11:23.668Z,20.21
2018-05-07T08:12:23.731Z,20.29
2018-05-07T08:13:23.531Z,20.35
2018-05-07T08:14:23.469Z,20.38
2018-05-07T08:15:23.393Z,20.38
2018-05-07T08:16:44.314Z,20.54
2018-05-07T08:17:23.266Z,20.54
2018-05-07T08:18:23.192Z,20.67
2018-05-07T08:19:23.119Z,20.70
2018-05-07T08:20:23.048Z,20.72
2018-05-07T08:21:22.982Z,20.82
2018-05-07T08:22:43.895Z,20.80
2018-05-07T08:23:22.844Z,20.88
2018-05-07T08:24:22.775Z,20.87
2018-05-07T08:25:22.712Z,20.92
2018-05-07T08:26:22.633Z,20.89
2018-05-07T08:27:22.567Z,20.92
2018-05-07T08:28:43.505Z,21.04
2018-05-07T08:29:22.432Z,21.09
2018-05-07T08:30:22.397Z,21.07
2018-05-07T08:31:22.342Z,21.14
2018-05-07T08:32:22.226Z,21.17
2018-05-07T08:33:22.155Z,21.24
2018-05-07T08:34:43.093Z,21.13
2018-05-07T08:35:22.021Z,21.31
2018-05-07T08:36:21.958Z,21.32
2018-05-07T08:37:21.887Z,21.27
2018-05-07T08:38:21.812Z,21.43
2018-05-07T08:39:21.755Z,21.54
2018-05-07T08:40:42.675Z,21.56
2018-05-07T08:41:21.604Z,21.49
2018-05-07T08:42:21.578Z,21.49
2018-05-07T08:43:21.476Z,21.58
2018-05-07T08:44:21.404Z,21.74
2018-05-07T08:45:21.339Z,21.75
2018-05-07T08:46:42.249Z,21.77
2018-05-07T08:47:21.199Z,21.53
2018-05-07T08:48:21.131Z,21.59
2018-05-07T08:49:21.065Z,21.80
2018-05-07T08:50:20.993Z,21.82
2018-05-07T08:51:20.926Z,21.94
2018-05-07T08:52:41.863Z,22.02
2018-05-07T08:53:20.792Z,22.03
2018-05-07T08:54:20.890Z,22.09
2018-05-07T08:55:20.665Z,22.24
2018-05-07T08:56:20.595Z,22.09
2018-05-07T08:57:20.525Z,22.28
2018-05-07T08:58:41.442Z,22.24
2018-05-07T08:59:20.406Z,22.28
2018-05-07T09:00:20.321Z,22.39
2018-05-07T09:01:20.252Z,22.47
2018-05-07T09:02:20.187Z,22.68
2018-05-07T09:03:20.115Z,22.73
2018-05-07T09:04:41.033Z,22.72
2018-05-07T09:05:19.986Z,22.79
2018-05-07T09:06:19.911Z,23.09
2018-05-07T09:07:19.848Z,23.12
2018-05-07T09:08:19.776Z,23.09
2018-05-07T09:09:19.711Z,23.22
2018-05-07T09:10:40.631Z,23.23
2018-05-07T09:11:19.580Z,23.65
2018-05-07T09:12:19.511Z,23.65
2018-05-07T09:13:19.508Z,23.25
2018-05-07T09:14:19.384Z,23.17
2018-05-07T09:15:19.333Z,23.42
2018-05-07T09:16:40.231Z,24.05
2018-05-07T09:17:19.224Z,24.57
2018-05-07T09:18:19.121Z,24.93
2018-05-07T09:19:19.052Z,25.27
2018-05-07T09:20:18.987Z,25.80
2018-05-07T09:21:18.927Z,26.35
2018-05-07T09:22:39.850Z,27.21
2018-05-07T09:23:18.795Z,26.32
2018-05-07T09:24:18.739Z,26.88
2018-05-07T09:25:18.672Z,27.88
2018-05-07T09:26:18.637Z,28.43
2018-05-07T09:27:18.553Z,28.81
2018-05-07T09:28:39.476Z,28.93
2018-05-07T09:29:18.427Z,29.46
2018-05-07T09:30:18.373Z,29.02
2018-05-07T09:31:18.312Z,28.64
2018-05-07T09:32:18.254Z,28.88
2018-05-07T09:33:18.191Z,27.10
2018-05-07T09:34:39.118Z,26.44
2018-05-07T09:35:18.083Z,26.47
2018-05-07T09:36:18.019Z,27.25
2018-05-07T09:37:17.955Z,28.51
2018-05-07T09:38:17.897Z,28.96
2018-05-07T09:39:17.839Z,28.22
2018-05-07T09:40:38.770Z,27.69
2018-05-07T09:41:17.725Z,27.69
2018-05-07T09:42:17.668Z,28.54
2018-05-07T09:43:17.630Z,29.26
2018-05-07T09:44:17.566Z,29.37
2018-05-07T09:45:17.496Z,30.24
2018-05-07T09:46:38.434Z,31.19
2018-05-07T09:47:17.395Z,31.17
2018-05-07T09:48:17.368Z,29.06
2018-05-07T09:49:17.279Z,28.61
2018-05-07T09:50:17.220Z,29.12
2018-05-07T09:51:17.168Z,29.00
2018-05-07T09:52:38.101Z,28.85
2018-05-07T09:53:17.071Z,29.55
2018-05-07T09:54:17.004Z,29.36
2018-05-07T09:55:17.025Z,29.64
2018-05-07T09:56:16.892Z,30.31
2018-05-07T09:57:16.838Z,30.76
2018-05-07T09:58:37.769Z,29.90
2018-05-07T09:59:16.735Z,30.34
2018-05-07T10:00:16.674Z,31.04
2018-05-07T10:01:16.626Z,31.44
2018-05-07T10:02:16.567Z,30.39
2018-05-07T10:03:16.513Z,31.23
2018-05-07T10:04:37.451Z,31.39
2018-05-07T10:05:16.429Z,30.94
2018-05-07T10:06:16.352Z,30.69
2018-05-07T10:07:16.304Z,31.20
2018-05-07T10:08:16.244Z,30.10
2018-05-07T10:09:16.189Z,30.00
2018-05-07T10:10:37.126Z,30.55
2018-05-07T10:11:16.091Z,30.91
2018-05-07T10:12:16.047Z,31.35
2018-05-07T10:13:15.982Z,31.23
2018-05-07T10:14:15.923Z,31.29
2018-05-07T10:15:15.870Z,31.99
2018-05-07T10:16:36.811Z,32.00
2018-05-07T10:17:15.766Z,32.00
2018-05-07T10:18:15.754Z,31.53
2018-05-07T10:19:15.664Z,30.67
2018-05-07T10:20:15.619Z,30.00
2018-05-07T10:21:15.558Z,29.16
2018-05-07T10:22:36.496Z,30.24
2018-05-07T10:23:15.466Z,31.20
2018-05-07T10:24:15.481Z,31.13
2018-05-07T10:25:15.347Z,31.17
2018-05-07T10:26:15.291Z,29.92
2018-05-07T10:27:15.255Z,29.28
2018-05-07T10:28:36.178Z,27.92
2018-05-07T10:29:15.131Z,27.46
2018-05-07T10:30:15.095Z,27.07
2018-05-07T10:31:15.033Z,27.72
2018-05-07T10:32:14.976Z,28.03
2018-05-07T10:33:14.921Z,28.34
2018-05-07T10:34:35.859Z,28.06
2018-05-07T10:35:14.829Z,29.15
2018-05-07T10:36:14.766Z,29.76
2018-05-07T10:37:14.699Z,28.83
2018-05-07T10:38:14.647Z,28.48
2018-05-07T10:39:14.587Z,28.12
2018-05-07T10:40:35.525Z,28.34
2018-05-07T10:41:14.476Z,28.00
2018-05-07T10:42:14.474Z,28.31
2018-05-07T10:43:14.388Z,28.29
2018-05-07T10:44:14.304Z,28.18
2018-05-07T10:45:14.281Z,27.43
2018-05-07T10:46:35.180Z,27.27
2018-05-07T10:47:14.135Z,27.06
2018-05-07T10:48:14.079Z,26.23
2018-05-07T10:49:14.113Z,26.63
2018-05-07T10:50:13.954Z,26.50
2018-05-07T10:51:13.904Z,26.57
2018-05-07T10:52:34.827Z,26.72
2018-05-07T10:53:13.780Z,26.99
2018-05-07T10:54:13.727Z,27.12
2018-05-07T10:55:13.657Z,26.85
2018-05-07T10:56:13.636Z,25.99
2018-05-07T10:57:13.537Z,26.07
2018-05-07T10:58:34.477Z,26.12
2018-05-07T10:59:13.428Z,26.12
2018-05-07T11:00:13.355Z,26.29
2018-05-07T11:01:13.291Z,26.40
2018-05-07T11:02:13.228Z,26.66
2018-05-07T11:03:13.166Z,26.87
2018-05-07T11:04:34.088Z,26.91
2018-05-07T11:05:13.039Z,26.36
2018-05-07T11:06:12.981Z,25.79
2018-05-07T11:07:12.912Z,25.92
2018-05-07T11:08:12.852Z,25.87
2018-05-07T11:09:12.802Z,26.01
2018-05-07T11:10:33.717Z,26.18
2018-05-07T11:11:12.660Z,26.21
2018-05-07T11:12:12.606Z,25.60
2018-05-07T11:13:12.535Z,25.83
2018-05-07T11:14:12.476Z,25.98
2018-05-07T11:15:12.419Z,26.13
2018-05-07T11:16:33.342Z,26.32
2018-05-07T11:17:12.280Z,26.52
2018-05-07T11:18:12.225Z,26.23
2018-05-07T11:19:12.163Z,26.06
2018-05-07T11:20:12.091Z,26.01
2018-05-07T11:21:12.028Z,26.09
2018-05-07T11:22:32.953Z,26.25
2018-05-07T11:23:11.904Z,26.39
2018-05-07T11:24:11.848Z,26.62
2018-05-07T11:25:11.772Z,27.03
2018-05-07T11:26:11.711Z,26.88
2018-05-07T11:27:11.649Z,27.04
2018-05-07T11:28:32.568Z,27.54
2018-05-07T11:29:11.523Z,27.78
2018-05-07T11:30:11.451Z,27.70
2018-05-07T11:31:11.401Z,27.77
2018-05-07T11:32:11.351Z,27.43
2018-05-07T11:33:11.267Z,26.39
2018-05-07T11:34:32.187Z,26.76
2018-05-07T11:35:11.155Z,26.85
2018-05-07T11:36:11.082Z,27.03
2018-05-07T11:37:11.021Z,27.27
2018-05-07T11:38:10.970Z,27.40
2018-05-07T11:39:10.915Z,27.55
2018-05-07T11:40:31.815Z,27.49
2018-05-07T11:41:10.781Z,27.34
2018-05-07T11:42:10.712Z,27.62
2018-05-07T11:43:10.656Z,27.54
2018-05-07T11:44:10.584Z,27.41
2018-05-07T11:45:10.538Z,27.22
2018-05-07T11:46:31.445Z,27.19
2018-05-07T11:47:10.409Z,27.14
2018-05-07T11:48:10.352Z,27.10
2018-05-07T11:49:10.285Z,26.51
2018-05-07T11:50:10.211Z,26.26
2018-05-07T11:51:10.169Z,26.29
2018-05-07T11:52:31.082Z,26.28
2018-05-07T11:53:10.077Z,26.45
2018-05-07T11:54:09.981Z,26.57
2018-05-07T11:55:09.917Z,26.62
2018-05-07T11:56:09.837Z,26.76
2018-05-07T11:57:09.787Z,26.48
2018-05-07T11:58:30.699Z,26.52
2018-05-07T11:59:09.650Z,26.58
2018-05-07T12:00:09.608Z,26.88
2018-05-07T12:01:09.535Z,27.02
2018-05-07T12:02:09.458Z,27.19
2018-05-07T12:03:09.408Z,26.75
2018-05-07T12:04:30.321Z,27.18
2018-05-07T12:05:09.272Z,27.36
2018-05-07T12:06:09.224Z,27.37
2018-05-07T12:07:09.162Z,27.41
2018-05-07T12:08:09.083Z,27.46
2018-05-07T12:09:09.058Z,27.47
2018-05-07T12:10:29.945Z,27.28
2018-05-07T12:11:08.893Z,27.25
2018-05-07T12:12:08.824Z,27.13
2018-05-07T12:13:08.769Z,27.17
2018-05-07T12:14:08.702Z,27.18
2018-05-07T12:15:08.635Z,27.09
2018-05-07T12:16:29.564Z,27.12
2018-05-07T12:17:08.516Z,26.92
2018-05-07T12:18:08.445Z,26.65
2018-05-07T12:19:08.382Z,26.32
2018-05-07T12:20:08.325Z,26.20
2018-05-07T12:21:08.253Z,26.23
2018-05-07T12:22:29.184Z,26.26
2018-05-07T12:23:08.177Z,26.44
2018-05-07T12:24:08.169Z,26.52
2018-05-07T12:25:08.000Z,26.35
2018-05-07T12:26:07.953Z,26.50
2018-05-07T12:27:07.879Z,26.54
2018-05-07T12:28:28.847Z,26.52
2018-05-07T12:29:07.760Z,26.51
2018-05-07T12:30:07.686Z,26.50
2018-05-07T12:31:07.627Z,26.40
2018-05-07T12:32:07.565Z,26.18
2018-05-07T12:33:07.494Z,26.13
2018-05-07T12:34:28.411Z,26.18
2018-05-07T12:35:07.411Z,26.20
2018-05-07T12:36:07.302Z,26.32
2018-05-07T12:37:07.231Z,26.45
2018-05-07T12:38:07.163Z,26.75
2018-05-07T12:39:07.104Z,26.87
2018-05-07T12:40:28.028Z,26.91
2018-05-07T12:41:06.972Z,26.75
2018-05-07T12:42:06.911Z,26.33
2018-05-07T12:43:06.857Z,26.51
2018-05-07T12:44:06.778Z,26.50
2018-05-07T12:45:06.720Z,26.20
2018-05-07T12:46:27.643Z,26.32
2018-05-07T12:47:06.593Z,26.37
2018-05-07T12:48:06.526Z,26.25
2018-05-07T12:49:06.461Z,26.40
2018-05-07T12:50:06.413Z,26.43
2018-05-07T12:51:06.324Z,26.54
2018-05-07T12:52:27.263Z,26.40